createdAt,value
2019-04-05T00:01:25.713Z,3.80
2019-04-05T00:03:55.063Z,3.70
2019-04-05T00:06:24.273Z,4.00
2019-04-05T00:08:53.778Z,4.10
2019-04-05T00:11:24.107Z,4.10
2019-04-05T00:13:55.328Z,4.10
2019-04-05T00:16:24.465Z,4.10
2019-04-05T00:18:55.616Z,4.10
2019-04-05T00:21:24.716Z,4.10
2019-04-05T00:23:55.673Z,4.10
2019-04-05T00:26:24.783Z,3.90
2019-04-05T00:28:53.898Z,3.80
2019-04-05T00:31:25.300Z,3.70
2019-04-05T00:33:55.921Z,3.60
2019-04-05T00:36:25.094Z,3.50
2019-04-05T00:38:57.979Z,3.40
2019-04-05T00:41:29.720Z,3.40
2019-04-05T00:43:58.949Z,3.40
2019-04-05T00:46:28.122Z,3.30
2019-04-05T00:48:57.252Z,3.40
2019-04-05T00:51:26.369Z,3.30
2019-04-05T00:53:57.366Z,3.20
2019-04-05T00:56:26.488Z,3.20
2019-04-05T00:58:58.098Z,3.20
2019-04-05T01:01:28.295Z,3.20
2019-04-05T01:03:57.464Z,3.30
2019-04-05T01:06:27.784Z,3.30
2019-04-05T01:09:07.324Z,3.30
2019-04-05T01:11:36.868Z,3.30
2019-04-05T01:14:06.311Z,3.40
2019-04-05T01:16:35.469Z,3.40
2019-04-05T01:19:06.333Z,3.40
2019-04-05T01:21:39.872Z,3.40
2019-04-05T01:24:13.631Z,3.50
2019-04-05T01:26:47.320Z,3.50
2019-04-05T01:29:16.721Z,3.50
2019-04-05T01:31:46.048Z,3.60
2019-04-05T01:34:17.875Z,3.70
2019-04-05T01:36:46.960Z,3.70
2019-04-05T01:39:17.751Z,3.80
2019-04-05T01:41:48.633Z,3.80
2019-04-05T01:44:18.864Z,3.90
2019-04-05T01:46:48.849Z,3.90
2019-04-05T01:49:26.272Z,3.90
2019-04-05T01:51:56.526Z,3.90
2019-04-05T01:54:25.676Z,3.90
2019-04-05T01:56:54.928Z,3.90
2019-04-05T01:59:24.095Z,3.90
2019-04-05T02:01:53.229Z,4.00
2019-04-05T02:04:23.631Z,4.00
2019-04-05T02:06:56.278Z,4.00
2019-04-05T02:09:27.840Z,4.00
2019-04-05T02:11:57.010Z,4.00
2019-04-05T02:14:27.111Z,3.90
2019-04-05T02:16:58.556Z,4.00
2019-04-05T02:19:27.729Z,4.00
2019-04-05T02:21:58.727Z,4.00
2019-04-05T02:24:27.872Z,3.90
2019-04-05T02:26:57.017Z,3.80
2019-04-05T02:29:26.135Z,3.70
2019-04-05T02:31:55.396Z,3.70
2019-04-05T02:34:24.607Z,3.70
2019-04-05T02:36:53.845Z,3.70
2019-04-05T02:39:22.984Z,3.60
2019-04-05T02:41:56.048Z,3.60
2019-04-05T02:44:26.635Z,3.60
2019-04-05T02:46:56.502Z,3.50
2019-04-05T02:49:29.166Z,3.50
2019-04-05T02:52:01.759Z,3.40
2019-04-05T02:54:32.407Z,3.30
2019-04-05T02:57:02.518Z,3.30
2019-04-05T02:59:33.559Z,3.30
2019-04-05T03:02:05.012Z,3.30
2019-04-05T03:04:34.554Z,3.20
2019-04-05T03:07:04.407Z,3.10
2019-04-05T03:09:36.482Z,3.10
2019-04-05T03:12:06.641Z,3.10
2019-04-05T03:14:39.699Z,3.10
2019-04-05T03:17:09.496Z,3.00
2019-04-05T03:19:40.207Z,2.80
2019-04-05T03:22:12.358Z,2.80
2019-04-05T03:24:44.362Z,2.80
2019-04-05T03:27:21.425Z,2.80
2019-04-05T03:29:52.464Z,2.80
2019-04-05T03:32:22.499Z,2.80
2019-04-05T03:34:52.271Z,2.70
2019-04-05T03:37:23.921Z,2.80
2019-04-05T03:39:55.468Z,2.60
2019-04-05T03:42:24.835Z,2.60
2019-04-05T03:44:56.668Z,2.60
2019-04-05T03:47:25.910Z,2.70
2019-04-05T03:49:56.902Z,2.60
2019-04-05T03:52:26.033Z,2.70
2019-04-05T03:54:55.167Z,2.80
2019-04-05T03:57:24.541Z,2.90
2019-04-05T03:59:54.097Z,3.00
2019-04-05T04:02:23.656Z,3.00
2019-04-05T04:04:53.177Z,3.00
2019-04-05T04:07:22.396Z,3.00
2019-04-05T04:09:53.271Z,3.00
2019-04-05T04:12:22.541Z,3.00
2019-04-05T04:14:57.584Z,3.10
2019-04-05T04:17:26.682Z,3.10
2019-04-05T04:19:56.657Z,3.10
2019-04-05T04:22:30.114Z,3.20
2019-04-05T04:25:00.131Z,3.10
2019-04-05T04:27:32.829Z,2.90
2019-04-05T04:30:02.616Z,3.00
2019-04-05T04:32:31.878Z,2.90
2019-04-05T04:35:03.234Z,2.90
2019-04-05T04:37:33.093Z,2.90
2019-04-05T04:40:02.518Z,2.80
2019-04-05T04:42:32.304Z,2.80
2019-04-05T04:45:12.116Z,3.00
2019-04-05T04:47:33.456Z,3.10
2019-04-05T04:50:03.018Z,3.20
2019-04-05T04:52:33.358Z,3.20
2019-04-05T04:55:02.490Z,3.20
2019-04-05T04:57:34.355Z,3.20
2019-04-05T05:00:05.919Z,3.20
2019-04-05T05:02:35.035Z,3.10
2019-04-05T05:05:06.750Z,3.10
2019-04-05T05:07:36.683Z,3.10
2019-04-05T05:10:06.404Z,3.00
2019-04-05T05:12:36.078Z,2.90
2019-04-05T05:15:07.875Z,2.90
2019-04-05T05:17:39.208Z,2.90
2019-04-05T05:20:09.189Z,2.90
2019-04-05T05:22:40.949Z,2.90
2019-04-05T05:25:10.254Z,2.90
2019-04-05T05:27:39.781Z,2.90
2019-04-05T05:30:11.888Z,3.00
2019-04-05T05:32:41.334Z,3.00
2019-04-05T05:35:10.454Z,3.10
2019-04-05T05:37:41.047Z,3.00
2019-04-05T05:40:10.983Z,3.10
2019-04-05T05:42:42.600Z,3.10
2019-04-05T05:45:13.154Z,3.10
2019-04-05T05:47:51.629Z,3.10
2019-04-05T05:50:13.404Z,3.20
2019-04-05T05:52:43.412Z,3.20
2019-04-05T05:55:12.889Z,3.30
2019-04-05T05:57:42.074Z,3.20
2019-04-05T06:00:16.777Z,3.30
2019-04-05T06:02:48.232Z,3.30
2019-04-05T06:05:21.650Z,3.30
2019-04-05T06:07:52.697Z,3.40
2019-04-05T06:10:24.893Z,3.40
2019-04-05T06:12:54.040Z,3.50
2019-04-05T06:15:23.223Z,3.50
2019-04-05T06:18:04.139Z,3.60
2019-04-05T06:20:24.559Z,3.60
2019-04-05T06:22:54.297Z,3.60
2019-04-05T06:25:23.411Z,3.70
2019-04-05T06:27:54.913Z,3.80
2019-04-05T06:30:24.122Z,3.90
2019-04-05T06:32:54.871Z,3.90
2019-04-05T06:35:26.318Z,4.10
2019-04-05T06:37:56.396Z,4.20
2019-04-05T06:40:39.738Z,4.20
2019-04-05T06:42:58.566Z,4.30
2019-04-05T06:45:27.712Z,4.30
2019-04-05T06:47:56.890Z,4.30
2019-04-05T06:50:30.144Z,4.30
2019-04-05T06:52:59.259Z,4.40
2019-04-05T06:55:28.440Z,4.30
2019-04-05T06:57:59.329Z,4.30
2019-04-05T07:00:31.640Z,4.30
2019-04-05T07:03:00.838Z,4.30
2019-04-05T07:05:30.300Z,4.30
2019-04-05T07:07:59.568Z,4.30
2019-04-05T07:10:28.788Z,4.30
2019-04-05T07:12:58.106Z,4.40
2019-04-05T07:15:27.307Z,4.50
2019-04-05T07:17:56.429Z,4.60
2019-04-05T07:20:25.520Z,4.70
2019-04-05T07:22:56.949Z,4.80
2019-04-05T07:25:29.464Z,5.00
2019-04-05T07:27:58.760Z,5.40
2019-04-05T07:30:28.895Z,5.70
2019-04-05T07:32:58.255Z,6.00
2019-04-05T07:35:33.715Z,6.40
2019-04-05T07:38:02.612Z,6.70
2019-04-05T07:40:33.352Z,6.90
2019-04-05T07:43:02.443Z,7.30
2019-04-05T07:45:31.590Z,7.50
2019-04-05T07:48:01.140Z,7.90
2019-04-05T07:50:31.579Z,8.10
2019-04-05T07:53:01.033Z,8.40
2019-04-05T07:55:33.562Z,8.80
2019-04-05T08:01:54.326Z,9.10
2019-04-05T08:04:23.430Z,9.20
2019-04-05T08:06:55.574Z,9.60
2019-04-05T08:09:26.260Z,9.80
2019-04-05T08:11:55.841Z,10.10
2019-04-05T08:14:26.187Z,10.20
2019-04-05T08:16:57.597Z,10.40
2019-04-05T08:19:26.795Z,10.40
2019-04-05T08:21:55.912Z,10.70
2019-04-05T08:24:26.174Z,10.90
2019-04-05T08:26:55.609Z,11.00
2019-04-05T08:29:24.816Z,11.20
2019-04-05T08:31:56.270Z,11.40
2019-04-05T08:34:25.673Z,11.70
2019-04-05T08:36:54.832Z,11.80
2019-04-05T08:39:24.429Z,11.90
2019-04-05T08:41:55.727Z,12.10
2019-04-05T08:44:25.089Z,12.40
2019-04-05T08:46:54.529Z,12.50
2019-04-05T08:49:23.965Z,12.70
2019-04-05T08:51:54.147Z,12.70
2019-04-05T08:54:32.362Z,12.80
2019-04-05T08:56:54.858Z,12.90
2019-04-05T08:59:29.051Z,13.00
2019-04-05T09:01:58.183Z,13.40
2019-04-05T09:04:27.342Z,13.50
2019-04-05T09:06:57.889Z,13.70
2019-04-05T09:09:27.564Z,13.50
2019-04-05T09:11:57.595Z,13.50
2019-04-05T09:14:26.767Z,13.50
2019-04-05T09:16:55.967Z,13.90
2019-04-05T09:19:25.110Z,14.10
2019-04-05T09:21:54.482Z,13.90
2019-04-05T09:24:27.112Z,14.00
2019-04-05T09:26:57.371Z,14.20
2019-04-05T09:29:36.468Z,14.30
2019-04-05T09:32:05.460Z,14.20
2019-04-05T09:34:36.396Z,14.50
2019-04-05T09:37:05.529Z,14.70
2019-04-05T09:39:34.751Z,15.00
2019-04-05T09:42:03.990Z,15.10
2019-04-05T09:44:42.942Z,15.10
2019-04-05T09:47:14.370Z,15.10
2019-04-05T09:49:43.580Z,15.50
2019-04-05T09:52:17.440Z,15.80
2019-04-05T09:54:49.364Z,15.90
2019-04-05T09:57:18.493Z,16.10
2019-04-05T09:59:47.649Z,16.00
2019-04-05T10:02:16.808Z,15.80
2019-04-05T10:04:45.899Z,15.70
2019-04-05T10:07:18.198Z,16.00
2019-04-05T10:09:50.327Z,16.10
2019-04-05T10:12:18.372Z,16.20
2019-04-05T10:14:50.029Z,16.30
2019-04-05T10:17:19.249Z,16.40
2019-04-05T10:19:50.272Z,16.90
2019-04-05T10:22:20.733Z,17.10
2019-04-05T10:24:50.102Z,17.30
2019-04-05T10:27:23.237Z,17.40
2019-04-05T10:29:55.112Z,17.40
2019-04-05T10:32:24.142Z,17.20
2019-04-05T10:34:58.680Z,17.30
2019-04-05T10:37:29.104Z,17.50
2019-04-05T10:40:15.062Z,17.50
2019-04-05T10:42:50.835Z,17.40
2019-04-05T10:45:22.556Z,17.50
2019-04-05T10:47:56.730Z,17.70
2019-04-05T10:50:26.792Z,17.70
2019-04-05T10:52:55.908Z,17.80
2019-04-05T10:55:25.106Z,17.70
2019-04-05T10:57:56.299Z,17.70
2019-04-05T11:00:28.188Z,17.90
2019-04-05T11:03:02.250Z,17.50
2019-04-05T11:05:34.792Z,17.70
2019-04-05T11:08:04.102Z,17.90
2019-04-05T11:10:33.314Z,18.00
2019-04-05T11:13:05.422Z,18.20
2019-04-05T11:15:35.096Z,18.20
2019-04-05T11:18:09.096Z,18.30
2019-04-05T11:20:41.847Z,18.60
2019-04-05T11:23:11.709Z,18.60
2019-04-05T11:25:41.125Z,18.40
2019-04-05T11:28:10.417Z,18.50
2019-04-05T11:30:47.041Z,18.20
2019-04-05T11:33:19.466Z,18.50
2019-04-05T11:35:47.450Z,18.70
2019-04-05T11:38:19.282Z,18.90
2019-04-05T11:40:48.806Z,19.10
2019-04-05T11:43:21.015Z,18.80
2019-04-05T11:45:53.986Z,19.00
2019-04-05T11:48:25.748Z,19.10
2019-04-05T11:50:55.159Z,19.30
2019-04-05T11:53:24.350Z,19.50
2019-04-05T11:55:53.658Z,19.40
2019-04-05T11:58:23.928Z,19.50
2019-04-05T12:01:04.429Z,19.70
2019-04-05T12:03:33.541Z,19.50
2019-04-05T12:06:02.721Z,19.50
2019-04-05T12:08:32.162Z,19.20
2019-04-05T12:11:05.146Z,18.30
2019-04-05T12:13:37.368Z,18.50
2019-04-05T12:16:10.337Z,18.50
2019-04-05T12:18:41.024Z,18.60
2019-04-05T12:21:21.033Z,18.60
2019-04-05T12:23:52.347Z,19.00
2019-04-05T12:26:22.295Z,19.30
2019-04-05T12:28:53.390Z,19.20
2019-04-05T12:31:38.688Z,19.30
2019-04-05T12:34:08.546Z,19.30
2019-04-05T12:36:41.041Z,19.10
2019-04-05T12:39:11.325Z,19.00
2019-04-05T12:41:44.891Z,18.90
2019-04-05T12:44:15.183Z,18.60
2019-04-05T12:46:45.876Z,19.40
2019-04-05T12:49:23.781Z,18.70
2019-04-05T12:51:54.231Z,18.80
2019-04-05T12:54:24.173Z,19.00
2019-04-05T12:57:02.941Z,19.10
2019-04-05T12:59:33.915Z,18.50
2019-04-05T13:02:07.664Z,18.30
2019-04-05T13:04:39.839Z,18.50
2019-04-05T13:07:12.430Z,18.40
2019-04-05T13:09:46.396Z,18.40
2019-04-05T13:12:19.334Z,18.50
2019-04-05T13:14:59.610Z,18.00
2019-04-05T13:17:27.442Z,18.00
2019-04-05T13:19:58.418Z,18.00
2019-04-05T13:22:32.557Z,18.20
2019-04-05T13:25:05.898Z,18.00
2019-04-05T13:27:34.232Z,18.10
2019-04-05T13:30:03.548Z,18.20
2019-04-05T13:32:32.786Z,18.30
2019-04-05T13:35:10.649Z,18.60
2019-04-05T13:37:45.008Z,18.50
2019-04-05T13:40:16.165Z,18.50
2019-04-05T13:42:53.407Z,18.90
2019-04-05T13:45:25.237Z,18.80
2019-04-05T13:48:02.642Z,19.10
2019-04-05T13:50:32.127Z,19.10
2019-04-05T13:53:02.353Z,19.00
2019-04-05T13:55:31.489Z,18.50
2019-04-05T13:58:01.050Z,18.50
2019-04-05T14:00:30.365Z,18.20
2019-04-05T14:02:59.555Z,18.00
2019-04-05T14:05:28.721Z,18.00
2019-04-05T14:08:10.044Z,18.10
2019-04-05T14:10:33.890Z,17.80
2019-04-05T14:13:07.649Z,17.60
2019-04-05T14:15:41.814Z,17.30
2019-04-05T14:18:14.483Z,17.90
2019-04-05T14:20:45.542Z,18.00
2019-04-05T14:23:17.033Z,17.90
2019-04-05T14:25:47.598Z,18.00
2019-04-05T14:28:17.017Z,17.80
2019-04-05T14:30:47.692Z,17.50
2019-04-05T14:33:19.138Z,18.00
2019-04-05T14:35:48.883Z,18.20
2019-04-05T14:38:18.223Z,17.80
2019-04-05T14:40:47.410Z,17.30
2019-04-05T14:43:16.849Z,17.30
2019-04-05T14:45:46.542Z,17.50
2019-04-05T14:48:16.151Z,17.50
2019-04-05T14:50:45.364Z,17.40
2019-04-05T14:53:14.498Z,17.30
2019-04-05T14:55:43.644Z,17.30
2019-04-05T14:58:12.793Z,17.50
2019-04-05T15:00:42.001Z,17.30
2019-04-05T15:03:11.056Z,17.30
2019-04-05T15:05:40.215Z,17.20
2019-04-05T15:08:09.347Z,17.20
2019-04-05T15:10:40.921Z,17.40
2019-04-05T15:13:12.072Z,17.60
2019-04-05T15:15:41.188Z,17.60
2019-04-05T15:18:10.295Z,17.40
2019-04-05T15:20:39.420Z,17.50
2019-04-05T15:23:09.724Z,17.90
2019-04-05T15:25:39.942Z,17.90
2019-04-05T15:28:09.102Z,17.80
2019-04-05T15:30:38.311Z,17.80
2019-04-05T15:33:10.338Z,17.60
2019-04-05T15:35:43.710Z,17.70
2019-04-05T15:38:15.318Z,17.50
2019-04-05T15:40:44.511Z,17.20
2019-04-05T15:43:14.416Z,17.30
2019-04-05T15:45:44.849Z,17.00
2019-04-05T15:48:15.868Z,16.80
2019-04-05T15:50:45.040Z,16.70
2019-04-05T15:53:14.210Z,16.60
2019-04-05T15:55:43.629Z,16.60
2019-04-05T15:58:14.439Z,16.60
2019-04-05T16:00:45.447Z,16.10
2019-04-05T16:03:15.185Z,16.10
2019-04-05T16:05:48.950Z,15.80
2019-04-05T16:08:19.191Z,16.00
2019-04-05T16:10:49.899Z,16.00
2019-04-05T16:13:20.231Z,16.10
2019-04-05T16:15:49.475Z,15.90
2019-04-05T16:18:20.219Z,15.70
2019-04-05T16:20:49.402Z,15.60
2019-04-05T16:23:18.602Z,15.60
2019-04-05T16:25:47.771Z,15.50
2019-04-05T16:28:18.221Z,15.30
2019-04-05T16:30:47.327Z,15.20
2019-04-05T16:33:16.489Z,14.90
2019-04-05T16:35:46.132Z,14.80
2019-04-05T16:38:15.295Z,14.80
2019-04-05T16:40:46.369Z,14.50
2019-04-05T16:43:15.479Z,14.40
2019-04-05T16:45:44.615Z,14.50
2019-04-05T16:48:13.741Z,14.50
2019-04-05T16:50:45.985Z,14.40
2019-04-05T16:53:15.204Z,14.30
2019-04-05T16:55:45.510Z,14.20
2019-04-05T16:58:20.119Z,14.20
2019-04-05T17:00:46.775Z,14.30
2019-04-05T17:03:15.908Z,14.20
2019-04-05T17:05:45.056Z,14.20
2019-04-05T17:08:14.256Z,14.10
2019-04-05T17:10:43.618Z,14.00
2019-04-05T17:13:12.874Z,13.80
2019-04-05T17:15:44.277Z,13.60
2019-04-05T17:18:13.629Z,13.50
2019-04-05T17:20:42.908Z,13.50
2019-04-05T17:23:12.050Z,13.50
2019-04-05T17:25:41.216Z,13.20
2019-04-05T17:28:10.405Z,13.20
2019-04-05T17:30:39.527Z,13.00
2019-04-05T17:33:08.716Z,12.90
2019-04-05T17:35:37.839Z,12.70
2019-04-05T17:38:07.236Z,12.70
2019-04-05T17:40:36.435Z,12.60
2019-04-05T17:43:07.947Z,12.40
2019-04-05T17:45:37.119Z,12.40
2019-04-05T17:48:08.566Z,12.30
2019-04-05T17:50:37.725Z,12.00
2019-04-05T17:53:12.598Z,11.90
2019-04-05T17:55:37.895Z,11.90
2019-04-05T17:58:07.546Z,11.80
2019-04-05T18:00:37.262Z,11.70
2019-04-05T18:03:06.379Z,11.60
2019-04-05T18:05:35.524Z,11.50
2019-04-05T18:08:05.659Z,11.40
2019-04-05T18:10:34.808Z,11.30
2019-04-05T18:13:04.988Z,11.20
2019-04-05T18:15:34.112Z,11.10
2019-04-05T18:18:04.245Z,11.00
2019-04-05T18:20:33.505Z,10.90
2019-04-05T18:23:02.701Z,10.90
2019-04-05T18:25:31.870Z,10.80
2019-04-05T18:28:03.122Z,10.80
2019-04-05T18:30:32.823Z,10.70
2019-04-05T18:33:03.480Z,10.70
2019-04-05T18:35:32.740Z,10.60
2019-04-05T18:38:01.897Z,10.60
2019-04-05T18:40:39.977Z,10.50
2019-04-05T18:43:04.355Z,10.50
2019-04-05T18:45:34.511Z,10.50
2019-04-05T18:48:06.245Z,10.50
2019-04-05T18:50:35.490Z,10.40
2019-04-05T18:53:05.231Z,10.40
2019-04-05T18:55:34.833Z,10.40
2019-04-05T18:58:04.013Z,10.30
2019-04-05T19:00:33.387Z,10.30
2019-04-05T19:03:10.268Z,10.40
2019-04-05T19:05:39.482Z,10.40
2019-04-05T19:08:08.793Z,10.30
2019-04-05T19:10:39.419Z,10.30
2019-04-05T19:13:08.470Z,10.20
2019-04-05T19:15:37.806Z,10.20
2019-04-05T19:18:08.279Z,10.20
2019-04-05T19:20:45.488Z,10.10
2019-04-05T19:23:16.104Z,10.10
2019-04-05T19:25:50.793Z,10.10
2019-04-05T19:28:20.821Z,10.00
2019-04-05T19:48:31.028Z,9.80
2019-04-05T19:51:00.426Z,9.80
2019-04-05T19:53:29.642Z,9.80
2019-04-05T19:55:58.753Z,9.80
2019-04-05T19:58:27.925Z,9.80
2019-04-05T20:00:59.818Z,9.80
2019-04-05T20:03:28.997Z,9.80
2019-04-05T20:05:58.135Z,9.80
2019-04-05T20:08:28.545Z,9.70
2019-04-05T20:10:57.647Z,9.80
2019-04-05T20:13:27.907Z,9.70
2019-04-05T20:15:58.327Z,9.80
2019-04-05T20:18:27.935Z,9.80
2019-04-05T20:20:57.012Z,9.70
2019-04-05T20:23:27.442Z,9.80
2019-04-05T20:25:57.063Z,9.70
2019-04-05T20:28:26.145Z,9.80
2019-04-05T20:30:55.232Z,9.80
2019-04-05T20:33:26.466Z,9.80
2019-04-05T20:36:03.204Z,9.70
2019-04-05T20:38:32.319Z,9.80
2019-04-05T20:41:05.430Z,9.80
2019-04-05T20:43:34.648Z,9.70
2019-04-05T20:46:06.366Z,9.80
2019-04-05T20:48:35.459Z,9.80
2019-04-05T20:51:04.849Z,9.70
2019-04-05T20:53:37.129Z,9.70
2019-04-05T20:56:06.370Z,9.70
2019-04-05T20:58:35.529Z,9.70
2019-04-05T21:01:04.940Z,9.70
2019-04-05T21:03:35.092Z,9.70
2019-04-05T21:06:04.229Z,9.70
2019-04-05T21:08:33.461Z,9.70
2019-04-05T21:11:03.343Z,9.70
2019-04-05T21:13:32.740Z,9.70
2019-04-05T21:16:01.905Z,9.60
2019-04-05T21:18:31.293Z,9.60
2019-04-05T21:21:00.442Z,9.70
2019-04-05T21:23:30.751Z,9.60
2019-04-05T21:26:06.619Z,9.60
2019-04-05T21:28:36.521Z,9.60
2019-04-05T21:31:08.005Z,9.60
2019-04-05T21:33:37.425Z,9.60
2019-04-05T21:36:06.713Z,9.60
2019-04-05T21:38:38.814Z,9.60
2019-04-05T21:41:08.516Z,9.60
2019-04-05T21:43:37.754Z,9.60
2019-04-05T21:46:09.963Z,9.60
2019-04-05T21:48:39.173Z,9.60
2019-04-05T21:51:09.612Z,9.60
2019-04-05T21:53:39.012Z,9.60
2019-04-05T21:56:08.279Z,9.60
2019-04-05T21:58:37.505Z,9.60
2019-04-05T22:01:08.309Z,9.60
2019-04-05T22:03:37.537Z,9.60
2019-04-05T22:06:07.035Z,9.50
2019-04-05T22:08:36.265Z,9.50
2019-04-05T22:11:07.001Z,9.50
2019-04-05T22:13:36.393Z,9.50
2019-04-05T22:16:06.563Z,9.60
2019-04-05T22:18:35.730Z,9.50
2019-04-05T22:21:04.999Z,9.50
2019-04-05T22:23:34.137Z,9.50
2019-04-05T22:26:03.351Z,9.50
2019-04-05T22:28:32.623Z,9.50
2019-04-05T22:31:01.844Z,9.50
2019-04-05T22:33:33.221Z,9.50
2019-04-05T22:36:05.095Z,9.50
2019-04-05T22:38:34.693Z,9.40
2019-04-05T22:41:03.974Z,9.40
2019-04-05T22:43:33.227Z,9.40
2019-04-05T22:46:02.494Z,9.40
2019-04-05T22:48:42.851Z,9.40
2019-04-05T22:51:12.051Z,9.40
2019-04-05T22:53:41.220Z,9.40
2019-04-05T22:56:10.473Z,9.40
2019-04-05T22:58:40.075Z,9.40
2019-04-05T23:01:09.824Z,9.40
2019-04-05T23:03:39.127Z,9.40
2019-04-05T23:06:08.352Z,9.40
2019-04-05T23:08:37.948Z,9.40
2019-04-05T23:11:07.191Z,9.40
2019-04-05T23:13:36.414Z,9.30
2019-04-05T23:16:05.811Z,9.20
2019-04-05T23:18:35.576Z,9.10
2019-04-05T23:21:05.394Z,9.10
2019-04-05T23:23:35.131Z,9.10
2019-04-05T23:26:05.854Z,9.10
2019-04-05T23:28:35.127Z,9.00
2019-04-05T23:31:04.424Z,9.10
2019-04-05T23:33:35.409Z,9.00
2019-04-05T23:36:06.125Z,9.00
2019-04-05T23:38:37.991Z,9.00
2019-04-05T23:41:10.059Z,9.00
2019-04-05T23:43:41.270Z,9.00
2019-04-05T23:46:11.165Z,9.00
2019-04-05T23:48:40.423Z,9.00
2019-04-05T23:51:09.657Z,9.00
2019-04-05T23:53:38.874Z,9.00
2019-04-05T23:56:08.314Z,9.00
2019-04-05T23:58:37.731Z,9.00
